createdAt,value
2023-07-19T00:02:24.960Z,100142.75
2023-07-19T00:05:28.363Z,100136.91
2023-07-19T00:08:32.417Z,100136.13
2023-07-19T00:11:44.737Z,100122.16
2023-07-19T00:14:47.147Z,100116.75
2023-07-19T00:17:51.707Z,100114.84
2023-07-19T00:20:55.263Z,100104.34
2023-07-19T00:24:02.227Z,100098.94
2023-07-19T00:27:08.151Z,100101.66
2023-07-19T00:30:11.705Z,100099.00
2023-07-19T00:33:14.366Z,100089.66
2023-07-19T00:36:17.428Z,100079.59
2023-07-19T00:39:20.311Z,100085.81
2023-07-19T00:42:23.417Z,100082.31
2023-07-19T00:45:26.963Z,100078.84
2023-07-19T00:48:30.020Z,100071.09
2023-07-19T00:51:34.325Z,100061.81
2023-07-19T00:54:37.978Z,100061.00
2023-07-19T00:57:44.280Z,100057.09
2023-07-19T01:00:48.364Z,100047.91
2023-07-19T01:03:51.241Z,100047.91
2023-07-19T01:06:54.418Z,100060.34
2023-07-19T01:09:57.225Z,100052.19
2023-07-19T01:13:07.438Z,100066.50
2023-07-19T01:16:11.236Z,100057.97
2023-07-19T01:19:16.361Z,100070.41
2023-07-19T01:22:19.222Z,100065.38
2023-07-19T01:25:22.304Z,100070.41
2023-07-19T01:28:25.025Z,100064.63
2023-07-19T01:31:27.996Z,100049.53
2023-07-19T01:34:31.310Z,100044.84
2023-07-19T01:37:35.056Z,100037.13
2023-07-19T01:40:39.768Z,100033.63
2023-07-19T01:43:43.507Z,100047.56
2023-07-19T01:46:45.995Z,100049.53
2023-07-19T01:49:48.826Z,100054.56
2023-07-19T01:52:51.476Z,100054.97
2023-07-19T01:55:56.283Z,100061.94
2023-07-19T01:58:58.915Z,100046.81
2023-07-19T02:02:03.250Z,100034.81
2023-07-19T02:05:06.479Z,100035.56
2023-07-19T02:08:09.491Z,100048.75
2023-07-19T02:11:12.862Z,100042.19
2023-07-19T02:14:20.128Z,100045.28
2023-07-19T02:17:26.637Z,100042.59
2023-07-19T02:20:30.105Z,100046.81
2023-07-19T02:23:34.656Z,100035.22
2023-07-19T02:26:37.397Z,100021.69
2023-07-19T02:29:39.962Z,100032.13
2023-07-19T02:32:47.228Z,100044.13
2023-07-19T02:35:56.619Z,100046.06
2023-07-19T02:39:01.667Z,100026.72
2023-07-19T02:42:05.264Z,100024.00
2023-07-19T02:45:08.678Z,100037.16
2023-07-19T02:48:11.123Z,100035.63
2023-07-19T02:51:13.934Z,100049.53
2023-07-19T02:54:19.747Z,100053.72
2023-07-19T02:57:22.573Z,100063.44
2023-07-19T03:00:25.855Z,100048.38
2023-07-19T03:03:30.373Z,100037.16
2023-07-19T03:06:33.014Z,100026.72
2023-07-19T03:09:36.129Z,100027.09
2023-07-19T03:12:38.997Z,100029.44
2023-07-19T03:15:47.315Z,100026.69
2023-07-19T03:18:49.880Z,100030.94
2023-07-19T03:21:52.845Z,100026.31
2023-07-19T03:24:55.478Z,100022.41
2023-07-19T03:27:59.183Z,100026.69
2023-07-19T03:31:02.561Z,100018.56
2023-07-19T03:34:08.042Z,100013.97
2023-07-19T03:37:10.949Z,100018.19
2023-07-19T03:40:14.434Z,100024.00
2023-07-19T03:43:19.243Z,100025.50
2023-07-19T03:46:23.755Z,100020.50
2023-07-19T03:49:26.317Z,100014.34
2023-07-19T03:52:29.370Z,100012.78
2023-07-19T03:55:33.961Z,100005.06
2023-07-19T03:58:49.954Z,100000.41
2023-07-19T04:01:52.986Z,100017.81
2023-07-19T04:04:56.373Z,100007.34
2023-07-19T04:08:02.699Z,100010.47
2023-07-19T04:11:06.991Z,100014.72
2023-07-19T04:14:09.758Z,100015.50
2023-07-19T04:17:13.474Z,100025.53
2023-07-19T04:20:16.045Z,100009.31
2023-07-19T04:23:19.096Z,100017.00
2023-07-19T04:26:22.741Z,100010.84
2023-07-19T04:29:25.881Z,100011.97
2023-07-19T04:32:34.345Z,100003.47
2023-07-19T04:35:37.478Z,99996.88
2023-07-19T04:38:40.914Z,100006.94
2023-07-19T04:41:46.261Z,100011.97
2023-07-19T04:44:51.538Z,100011.63
2023-07-19T04:47:56.320Z,100024.75
2023-07-19T04:51:00.111Z,100034.41
2023-07-19T04:54:03.416Z,100045.69
2023-07-19T04:57:08.387Z,100057.28
2023-07-19T05:00:13.278Z,100051.88
2023-07-19T05:03:16.245Z,100048.34
2023-07-19T05:06:18.878Z,100033.19
2023-07-19T05:09:22.778Z,100035.91
2023-07-19T05:12:26.001Z,100032.78
2023-07-19T05:15:28.785Z,100042.03
2023-07-19T05:18:35.371Z,100043.16
2023-07-19T05:21:38.538Z,100040.47
2023-07-19T05:24:44.748Z,100031.59
2023-07-19T05:27:48.021Z,100036.19
2023-07-19T05:30:51.103Z,100036.53
2023-07-19T05:33:53.689Z,100043.09
2023-07-19T05:36:56.941Z,100046.13
2023-07-19T05:40:00.353Z,100055.06
2023-07-19T05:43:04.707Z,100046.78
2023-07-19T05:46:09.401Z,100045.53
2023-07-19T05:49:12.748Z,100050.16
2023-07-19T05:52:15.233Z,100048.56
2023-07-19T05:55:18.435Z,100046.59
2023-07-19T05:58:21.712Z,100030.00
2023-07-19T06:01:30.564Z,100030.41
2023-07-19T06:04:35.352Z,100018.00
2023-07-19T06:07:38.259Z,100014.31
2023-07-19T06:10:41.916Z,100026.06
2023-07-19T06:13:51.410Z,100020.84
2023-07-19T06:16:57.606Z,100030.28
2023-07-19T06:20:01.489Z,100025.88
2023-07-19T06:23:04.878Z,100021.00
2023-07-19T06:26:12.946Z,100026.56
2023-07-19T06:29:15.883Z,100012.28
2023-07-19T06:32:19.325Z,100009.78
2023-07-19T06:35:22.272Z,100017.25
2023-07-19T06:38:27.030Z,100020.63
2023-07-19T06:41:29.652Z,100026.53
2023-07-19T06:44:33.342Z,100002.16
2023-07-19T06:47:39.881Z,100012.84
2023-07-19T06:50:42.595Z,100010.13
2023-07-19T06:53:45.052Z,100010.31
2023-07-19T06:56:48.126Z,100011.13
2023-07-19T06:59:51.180Z,100010.19
2023-07-19T07:02:54.018Z,100017.81
2023-07-19T07:05:56.713Z,100009.03
2023-07-19T07:09:00.241Z,100004.22
2023-07-19T07:12:03.123Z,99995.38
2023-07-19T07:15:06.391Z,99997.38
2023-07-19T07:18:08.863Z,99994.25
2023-07-19T07:21:12.517Z,99993.13
2023-07-19T07:24:16.493Z,99989.78
2023-07-19T07:27:19.418Z,99995.16
2023-07-19T07:30:21.898Z,100006.63
2023-07-19T07:33:24.570Z,100001.59
2023-07-19T07:36:27.127Z,99993.97
2023-07-19T07:39:31.490Z,100000.56
2023-07-19T07:42:34.328Z,100000.34
2023-07-19T07:45:37.805Z,100000.97
2023-07-19T07:48:40.672Z,99986.31
2023-07-19T07:51:43.963Z,99988.44
2023-07-19T07:54:46.439Z,99991.00
2023-07-19T07:57:49.290Z,99991.78
2023-07-19T08:00:55.599Z,99983.19
2023-07-19T08:03:59.153Z,99982.75
2023-07-19T08:07:02.067Z,99976.41
2023-07-19T08:10:05.032Z,99977.19
2023-07-19T08:13:09.545Z,99977.50
2023-07-19T08:16:12.343Z,99982.56
2023-07-19T08:19:14.864Z,99979.00
2023-07-19T08:22:28.335Z,99979.22
2023-07-19T08:25:31.201Z,99972.78
2023-07-19T08:28:34.349Z,99969.53
2023-07-19T08:31:37.796Z,99969.25
2023-07-19T08:34:40.728Z,99970.66
2023-07-19T08:37:44.636Z,99953.06
2023-07-19T08:41:07.245Z,99951.06
2023-07-19T08:44:12.719Z,99944.97
2023-07-19T08:47:15.972Z,99956.53
2023-07-19T08:50:19.621Z,99955.78
2023-07-19T08:53:24.812Z,99949.75
2023-07-19T08:56:27.906Z,99964.00
2023-07-19T08:59:30.533Z,99958.94
2023-07-19T09:02:33.157Z,99947.94
2023-07-19T09:05:36.748Z,99945.88
2023-07-19T09:08:42.482Z,99943.13
2023-07-19T09:11:50.971Z,99952.13
2023-07-19T09:14:53.758Z,99948.75
2023-07-19T09:17:56.603Z,99939.34
2023-07-19T09:20:59.967Z,99936.69
2023-07-19T09:24:07.093Z,99925.00
2023-07-19T09:27:10.307Z,99925.94
2023-07-19T09:30:15.319Z,99930.53
2023-07-19T09:33:19.050Z,99925.44
2023-07-19T09:36:23.018Z,99907.91
2023-07-19T09:39:26.128Z,99912.69
2023-07-19T09:42:32.214Z,99920.03
2023-07-19T09:45:34.943Z,99912.69
2023-07-19T09:48:38.119Z,99931.31
2023-07-19T09:51:45.320Z,99933.91
2023-07-19T09:54:48.546Z,99924.97
2023-07-19T09:57:53.079Z,99924.25
2023-07-19T10:00:56.173Z,99924.97
2023-07-19T10:04:04.881Z,99923.63
2023-07-19T10:07:14.010Z,99925.34
2023-07-19T10:10:16.582Z,99921.38
2023-07-19T10:13:19.977Z,99915.47
2023-07-19T10:16:36.113Z,99927.00
2023-07-19T10:19:39.771Z,99910.81
2023-07-19T10:22:58.230Z,99909.00
2023-07-19T10:26:07.786Z,99908.75
2023-07-19T10:29:10.467Z,99920.97
2023-07-19T10:32:13.871Z,99907.19
2023-07-19T10:35:31.654Z,99913.34
2023-07-19T10:38:35.162Z,99905.72
2023-07-19T10:41:38.386Z,99908.13
2023-07-19T10:44:42.010Z,99892.09
2023-07-19T10:47:44.769Z,99897.59
2023-07-19T10:50:48.223Z,99890.38
2023-07-19T10:53:58.533Z,99891.47
2023-07-19T10:57:02.858Z,99886.25
2023-07-19T11:00:16.397Z,99875.63
2023-07-19T11:03:24.740Z,99878.53
2023-07-19T11:06:27.520Z,99879.44
2023-07-19T11:09:30.362Z,99873.06
2023-07-19T11:12:33.598Z,99872.28
2023-07-19T11:15:36.167Z,99873.63
2023-07-19T11:18:42.174Z,99871.94
2023-07-19T11:21:45.828Z,99869.75
2023-07-19T11:24:51.048Z,99862.22
2023-07-19T11:27:54.527Z,99853.09
2023-07-19T11:30:57.055Z,99851.84
2023-07-19T11:34:06.433Z,99842.63
2023-07-19T11:37:17.033Z,99850.44
2023-07-19T11:40:20.703Z,99844.78
2023-07-19T11:43:28.549Z,99832.84
2023-07-19T11:46:31.630Z,99824.09
2023-07-19T11:49:34.329Z,99811.63
2023-07-19T11:53:04.517Z,99808.06
2023-07-19T11:56:11.869Z,99799.97
2023-07-19T11:59:15.378Z,99804.59
2023-07-19T12:02:17.934Z,99791.81
2023-07-19T12:05:25.233Z,99787.69
2023-07-19T12:08:28.621Z,99776.78
2023-07-19T12:11:31.258Z,99766.50
2023-07-19T12:14:34.458Z,99765.63
2023-07-19T12:17:37.626Z,99760.56
2023-07-19T12:20:40.444Z,99756.97
2023-07-19T12:26:57.213Z,99740.13
2023-07-19T12:30:03.655Z,99726.56
2023-07-19T12:33:07.004Z,99728.34
2023-07-19T12:36:11.116Z,99732.03
2023-07-19T12:39:15.158Z,99715.66
2023-07-19T12:42:18.526Z,99720.66
2023-07-19T12:45:21.193Z,99719.19
2023-07-19T12:48:23.785Z,99712.28
2023-07-19T12:51:26.505Z,99702.75
2023-07-19T12:54:29.630Z,99683.22
2023-07-19T12:57:32.575Z,99668.38
2023-07-19T13:00:36.390Z,99665.84
2023-07-19T13:03:39.653Z,99668.47
2023-07-19T13:06:52.480Z,99669.09
2023-07-19T13:09:55.892Z,99673.66
2023-07-19T13:12:58.534Z,99659.34
2023-07-19T13:16:02.562Z,99650.06
2023-07-19T13:19:05.832Z,99658.31
2023-07-19T13:22:12.882Z,99658.81
2023-07-19T13:25:16.326Z,99649.72
2023-07-19T13:28:19.002Z,99650.13
2023-07-19T13:31:21.703Z,99643.47
2023-07-19T13:34:24.413Z,99639.44
2023-07-19T13:38:06.769Z,99633.09
2023-07-19T13:40:50.088Z,99627.28
2023-07-19T13:43:58.368Z,99632.13
2023-07-19T13:47:01.983Z,99624.63
2023-07-19T13:50:05.529Z,99608.19
2023-07-19T13:53:08.885Z,99610.31
2023-07-19T13:56:12.495Z,99604.78
2023-07-19T13:59:15.370Z,99598.28
2023-07-19T14:02:19.121Z,99608.84
2023-07-19T14:05:29.196Z,99619.84
2023-07-19T14:08:32.223Z,99607.78
2023-07-19T14:11:35.280Z,99605.44
2023-07-19T14:17:45.872Z,99611.38
2023-07-19T14:20:51.551Z,99605.56
2023-07-19T14:23:54.714Z,99595.22
2023-07-19T14:26:58.065Z,99594.63
2023-07-19T14:30:00.469Z,99589.06
2023-07-19T14:33:04.937Z,99589.50
2023-07-19T14:36:07.537Z,99568.69
2023-07-19T14:39:10.880Z,99556.44
2023-07-19T14:42:15.244Z,99559.69
2023-07-19T14:45:19.937Z,99552.50
2023-07-19T14:48:25.227Z,99554.25
2023-07-19T14:51:28.106Z,99544.31
2023-07-19T14:54:31.035Z,99554.88
2023-07-19T14:57:37.470Z,99558.53
2023-07-19T15:00:40.606Z,99544.69
2023-07-19T15:03:44.169Z,99545.38
2023-07-19T15:06:47.771Z,99550.41
2023-07-19T15:09:50.752Z,99556.78
2023-07-19T15:12:53.408Z,99554.75
2023-07-19T15:15:57.849Z,99549.81
2023-07-19T15:22:07.936Z,99544.09
2023-07-19T15:25:10.594Z,99542.44
2023-07-19T15:28:29.008Z,99560.75
2023-07-19T15:31:33.655Z,99575.75
2023-07-19T15:34:37.210Z,99584.75
2023-07-19T15:37:39.940Z,99593.19
2023-07-19T15:40:42.696Z,99596.41
2023-07-19T15:43:45.863Z,99579.84
2023-07-19T15:46:50.187Z,99565.81
2023-07-19T15:49:52.946Z,99566.34
2023-07-19T15:52:55.640Z,99556.50
2023-07-19T15:55:58.352Z,99554.22
2023-07-19T15:59:01.910Z,99555.34
2023-07-19T16:02:08.047Z,99556.19
2023-07-19T16:05:11.380Z,99551.28
2023-07-19T16:08:14.248Z,99538.94
2023-07-19T16:11:16.995Z,99532.78
2023-07-19T16:14:20.185Z,99536.72
2023-07-19T16:17:22.858Z,99531.53
2023-07-19T16:20:25.917Z,99522.78
2023-07-19T16:23:28.818Z,99535.69
2023-07-19T16:26:31.633Z,99543.19
2023-07-19T16:29:34.688Z,99545.63
2023-07-19T16:32:37.581Z,99542.22
2023-07-19T16:35:40.812Z,99547.53
2023-07-19T16:38:46.490Z,99540.75
2023-07-19T16:41:49.945Z,99545.00
2023-07-19T16:44:52.628Z,99547.03
2023-07-19T16:47:59.830Z,99536.31
2023-07-19T16:51:03.024Z,99536.50
2023-07-19T16:54:06.076Z,99548.53
2023-07-19T16:57:13.019Z,99539.25
2023-07-19T17:00:17.996Z,99546.22
2023-07-19T17:03:21.206Z,99537.84
2023-07-19T17:06:27.198Z,99528.38
2023-07-19T17:09:29.635Z,99531.44
2023-07-19T17:12:36.242Z,99531.16
2023-07-19T17:15:38.777Z,99523.22
2023-07-19T17:18:44.555Z,99531.91
2023-07-19T17:21:48.522Z,99541.03
2023-07-19T17:24:51.582Z,99537.22
2023-07-19T17:27:54.246Z,99540.06
2023-07-19T17:30:57.557Z,99553.81
2023-07-19T17:34:01.307Z,99540.81
2023-07-19T17:37:04.542Z,99551.94
2023-07-19T17:40:10.366Z,99557.66
2023-07-19T17:43:13.629Z,99551.56
2023-07-19T17:46:20.187Z,99556.72
2023-07-19T17:49:29.177Z,99590.88
2023-07-19T17:52:32.878Z,99602.13
2023-07-19T17:55:35.498Z,99612.13
2023-07-19T17:58:38.841Z,99619.63
2023-07-19T18:01:42.269Z,99632.44
2023-07-19T18:04:46.648Z,99647.59
2023-07-19T18:07:49.616Z,99646.69
2023-07-19T18:10:52.535Z,99650.91
2023-07-19T18:13:56.092Z,99644.19
2023-07-19T18:16:59.209Z,99645.72
2023-07-19T18:20:01.874Z,99632.28
2023-07-19T18:23:04.440Z,99631.44
2023-07-19T18:26:07.478Z,99636.69
2023-07-19T18:29:12.646Z,99626.31
2023-07-19T18:32:16.244Z,99620.88
2023-07-19T18:35:21.230Z,99624.38
2023-07-19T18:38:24.198Z,99621.56
2023-07-19T18:41:26.876Z,99618.00
2023-07-19T18:44:34.221Z,99618.66
2023-07-19T18:47:37.327Z,99621.03
2023-07-19T18:50:40.477Z,99621.03
2023-07-19T18:53:48.794Z,99631.75
2023-07-19T18:56:52.187Z,99639.94
2023-07-19T18:59:57.477Z,99646.00
2023-07-19T19:03:00.630Z,99657.44
2023-07-19T19:06:04.345Z,99677.63
2023-07-19T19:09:08.143Z,99693.69
2023-07-19T19:12:11.778Z,99709.19
2023-07-19T19:15:15.207Z,99701.97
2023-07-19T19:18:20.477Z,99698.84
2023-07-19T19:21:24.781Z,99700.50
2023-07-19T19:24:27.842Z,99707.97
2023-07-19T19:27:30.553Z,99720.41
2023-07-19T19:30:33.918Z,99732.53
2023-07-19T19:33:40.922Z,99727.34
2023-07-19T19:36:44.014Z,99734.00
2023-07-19T19:39:50.826Z,99739.94
2023-07-19T19:42:57.246Z,99744.47
2023-07-19T19:46:01.593Z,99743.47
2023-07-19T19:49:04.495Z,99733.94
2023-07-19T19:52:08.691Z,99736.22
2023-07-19T19:55:12.573Z,99748.69
2023-07-19T19:58:15.307Z,99755.59
2023-07-19T20:01:17.987Z,99744.31
2023-07-19T20:04:21.234Z,99737.91
2023-07-19T20:07:24.026Z,99753.44
2023-07-19T20:10:26.965Z,99747.25
2023-07-19T20:13:29.408Z,99740.75
2023-07-19T20:16:40.345Z,99745.53
2023-07-19T20:19:53.217Z,99738.19
2023-07-19T20:22:58.130Z,99733.72
2023-07-19T20:26:14.203Z,99732.88
2023-07-19T20:38:43.039Z,99741.69
2023-07-19T20:41:46.488Z,99738.63
2023-07-19T20:44:49.772Z,99725.44
2023-07-19T20:47:53.072Z,99720.97
2023-07-19T20:50:56.072Z,99722.56
2023-07-19T20:53:59.149Z,99708.56
2023-07-19T20:57:02.008Z,99711.00
2023-07-19T21:00:06.297Z,99716.72
2023-07-19T21:03:09.189Z,99730.75
2023-07-19T21:06:12.374Z,99722.94
2023-07-19T21:09:15.344Z,99717.59
2023-07-19T21:12:19.133Z,99712.59
2023-07-19T21:15:21.976Z,99713.88
2023-07-19T21:18:24.992Z,99708.53
2023-07-19T21:21:28.493Z,99698.13
2023-07-19T21:24:31.229Z,99699.72
2023-07-19T21:27:34.175Z,99697.88
2023-07-19T21:30:37.063Z,99686.31
2023-07-19T21:33:39.977Z,99700.63
2023-07-19T21:36:43.056Z,99701.41
2023-07-19T21:39:45.502Z,99704.88
2023-07-19T21:42:52.337Z,99701.78
2023-07-19T21:45:54.868Z,99705.28
2023-07-19T21:48:57.937Z,99701.13
2023-07-19T21:52:01.170Z,99712.78
2023-07-19T21:55:04.146Z,99706.19
2023-07-19T21:58:07.888Z,99707.03
2023-07-19T22:01:11.280Z,99714.34
2023-07-19T22:04:14.168Z,99714.31
2023-07-19T22:07:18.071Z,99709.28
2023-07-19T22:10:23.070Z,99716.28
2023-07-19T22:13:27.336Z,99716.16
2023-07-19T22:16:30.580Z,99708.34
2023-07-19T22:19:33.947Z,99721.94
2023-07-19T22:22:36.951Z,99723.50
2023-07-19T22:25:39.642Z,99731.63
2023-07-19T22:28:42.360Z,99730.84
2023-07-19T22:31:45.383Z,99730.44
2023-07-19T22:34:50.609Z,99730.06
2023-07-19T22:37:56.260Z,99733.56
2023-07-19T22:40:59.038Z,99725.03
2023-07-19T22:44:02.100Z,99721.91
2023-07-19T22:47:05.079Z,99725.41
2023-07-19T22:50:09.244Z,99724.63
2023-07-19T22:53:15.387Z,99721.53
2023-07-19T22:56:18.141Z,99720.38
2023-07-19T22:59:23.260Z,99731.22
2023-07-19T23:02:26.274Z,99734.34
2023-07-19T23:05:29.190Z,99735.50
2023-07-19T23:08:32.342Z,99734.72
2023-07-19T23:11:39.607Z,99727.41
2023-07-19T23:14:42.930Z,99729.72
2023-07-19T23:17:45.741Z,99731.66
2023-07-19T23:20:51.097Z,99734.75
2023-07-19T23:23:54.041Z,99732.03
2023-07-19T23:26:56.803Z,99719.28
2023-07-19T23:29:59.578Z,99717.75
2023-07-19T23:33:02.639Z,99718.13
2023-07-19T23:36:09.751Z,99721.22
2023-07-19T23:39:12.882Z,99730.13
2023-07-19T23:42:15.376Z,99722.38
2023-07-19T23:45:18.850Z,99718.13
2023-07-19T23:48:24.487Z,99706.19
2023-07-19T23:51:27.237Z,99711.59
2023-07-19T23:54:30.195Z,99718.19
2023-07-19T23:57:41.287Z,99730.94
